Station: Alva Beach  

  Atmospheric Gas Attenuation - ITU Rec 676-11   ----------------- dB/100km -----------------
Date Time Temp RH % AH g/m3 Dew Point Wind Direction Speed kph Gust kph Barometer mB Rainfall Since 9am 24GHz 47GHz 76GHz 122GHz 134GHz 241GHz
01/09 14:50 23.6 67 14.25 17.1 24 35 1021.4 0 31.0 32.4 57.5 151.8 159.7 553.8
01/09 14:40 23.8 65 13.98 16.8 22 33 1021.6 0 30.4 31.9 56.3 148.4 155.5 539.4
01/09 14:30 24.1 67 14.66 17.6 22 32 1021.7 0 31.8 32.9 58.9 155.5 164.4 570.2
01/09 14:20 24.4 63 14.02 16.9 22 35 1021.9 0 30.4 31.7 56.0 147.8 154.9 537.3
01/09 14:10 24.2 63 13.86 16.7 22 33 1022.1 0 30.1 31.5 55.5 146.4 153.2 531.1
01/09 14:00 24.4 63 14.02 16.9 22 32 1022.3 0 30.4 31.7 56.0 147.8 155.0 537.4
01/09 13:50 24.4 64 14.24 17.1 22 33 1022.4 0 30.9 32.1 57.0 150.3 158.0 548.0
01/09 13:40 24.4 61 13.57 16.4 20 32 1022.6 0 29.5 31.0 54.2 142.9 148.9 516.2
01/09 13:30 24.5 61 13.65 16.5 20 28 1022.8 0 29.6 31.1 54.5 143.6 149.8 519.4
01/09 13:20 24.8 61 13.88 16.8 20 28 1022.9 0 30.1 31.4 55.2 145.6 152.3 528.3
01/09 13:10 24.8 60 13.66 16.5 17 24 1023 0 29.6 31.0 54.3 143.2 149.4 518.0
01/09 13:00 24.8 62 14.11 17 17 26 1023.1 0 30.6 31.8 56.2 148.2 155.5 539.3
01/09 12:50 24.5 62 13.88 16.7 17 24 1023.3 0 30.1 31.5 55.4 146.2 153.0 530.5
01/09 12:40 24.7 64 14.49 17.4 17 28 1023.5 0 31.4 32.5 57.9 152.6 160.9 558.4
01/09 12:30 24.8 63 14.34 17.3 17 26 1023.6 0 31.1 32.2 57.2 150.8 158.7 550.5
01/09 12:20 24.3 62 13.72 16.6 19 28 1023.8 0 29.8 31.3 54.9 144.9 151.2 524.4
01/09 12:10 24.3 62 13.72 16.6 20 32 1023.9 0 29.8 31.3 55.0 144.9 151.3 524.5
01/09 12:00 24.6 61 13.73 16.6 19 32 1024.2 0 29.8 31.3 54.8 144.5 150.8 523.1
01/09 11:50 24.4 62 13.8 16.6 19 30 1024.3 0 30.0 31.5 55.2 145.6 152.2 527.8
01/09 11:40 24.6 60 13.5 16.3 17 30 1024.4 0 29.3 30.9 53.9 142.0 147.8 512.3
01/09 11:30 24.2 60 13.2 15.9 20 30 1024.5 0 28.7 30.5 52.9 139.4 144.5 500.9
01/09 11:20 23.7 60 12.83 15.5 19 32 1024.6 0 28.0 30.1 51.7 136.3 140.5 486.8
01/09 11:10 24.3 64 14.16 17.1 20 30 1024.7 0 30.7 32.1 56.8 149.9 157.4 545.8
01/09 11:00 23.7 62 13.26 16 20 37 1024.9 0 28.9 30.8 53.5 141.0 146.3 507.1
01/09 10:50 23.9 62 13.41 16.2 19 30 1025 0 29.2 31.0 54.0 142.3 147.9 512.9
01/09 10:40 23.9 62 13.41 16.2 19 28 1025.1 0 29.2 31.0 54.0 142.3 148.0 512.9
01/09 10:30 23.7 64 13.69 16.5 20 32 1025.1 0 29.8 31.6 55.3 145.8 152.2 527.6
01/09 10:20 23.5 62 13.11 15.8 19 32 1025.2 0 28.6 30.7 53.0 139.8 144.7 501.4
01/09 10:10 23.4 64 13.46 16.2 17 30 1025.1 0 29.3 31.3 54.6 143.8 149.6 518.6
01/09 10:00 23.4 64 13.46 16.2 19 32 1025.1 0 29.3 31.3 54.6 143.8 149.6 518.6
01/09 09:50 23.1 64 13.23 15.9 17 30 1025 0 28.8 31.0 53.8 141.8 147.0 509.6
01/09 09:40 22.7 64 12.93 15.5 17 26 1025 0 28.2 30.6 52.8 139.2 143.7 497.9
01/09 09:30 22.8 67 13.61 16.4 17 24 1025 0 29.7 31.7 55.6 146.6 152.8 529.8
01/09 09:20 22.7 65 13.13 15.8 17 28 1024.9 0 28.7 31.0 53.7 141.4 146.4 507.4
01/09 09:10 22.6 65 13.06 15.7 17 30 1024.8 0 28.5 30.9 53.4 140.8 145.6 504.7
01/09 09:00 22.3 65 12.83 15.4 15 28 1024.9 0 28.1 30.6 52.7 138.8 143.1 495.7
01/09 08:50 22.1 66 12.88 15.5 15 26 1024.8 0 28.2 30.7 53.0 139.7 144.1 499.3
01/09 08:40 21.7 68 12.97 15.5 15 26 1024.7 0 28.4 31.0 53.7 141.4 146.1 506.1
01/09 08:30 21.4 68 12.75 15.3 13 30 1024.6 0 28.0 30.8 52.9 139.4 143.6 497.5
01/09 08:20 21.1 70 12.9 15.4 11 22 1024.6 0 28.3 31.1 53.8 141.7 146.3 506.6
01/09 08:10 20.3 72 12.66 15.1 11 22 1024.5 0 27.8 31.0 53.3 140.4 144.4 500.1
01/09 08:00 20 76 13.13 15.6 11 17 1024.4 0 28.9 31.9 55.5 146.3 151.6 525.1
01/09 07:50 19.4 79 13.18 15.7 11 20 1024.3 0 29.0 32.2 56.2 148.0 153.5 531.7
01/09 07:40 19.4 80 13.35 15.9 13 24 1024.3 0 29.4 32.5 56.9 150.0 155.9 540.2
01/09 07:30 19.2 80 13.19 15.7 11 20 1024.2 0 29.0 32.3 56.3 148.5 154.0 533.5
01/09 07:20 19.1 80 13.11 15.6 15 32 1024.1 0 28.9 32.2 56.1 147.7 153.1 530.2
01/09 07:10 19.1 82 13.44 16 15 28 1024.1 0 29.6 32.8 57.5 151.6 157.8 546.8
01/09 07:00 18.9 83 13.45 16 15 28 1024 0 29.6 32.9 57.7 152.1 158.4 548.7
01/09 06:50 18.8 87 14.01 16.6 13 28 1024 0 30.8 33.9 60.3 159.0 166.8 578.1
01/09 06:40 18.7 87 13.93 16.5 15 24 1024 0 30.7 33.8 60.0 158.2 165.9 574.7
01/09 06:30 18.7 85 13.61 16.1 17 30 1024 0 30.0 33.2 58.6 154.4 161.2 558.3
01/09 06:20 19.5 79 13.26 15.8 20 35 1023.8 0 29.2 32.3 56.4 148.7 154.4 534.8
01/09 06:10 19.9 78 13.4 16 20 37 1023.4 0 29.4 32.4 56.7 149.5 155.5 538.9
01/09 06:00 20 79 13.65 16.2 19 32 1023.2 0 30.0 32.8 57.7 152.2 158.9 550.6
01/09 05:50 19.8 79 13.49 16.1 17 28 1023 0 29.6 32.6 57.2 150.7 157.0 543.9
01/09 05:40 19.7 81 13.75 16.3 17 32 1023 0 30.2 33.1 58.4 153.9 161.0 557.7
01/09 05:30 19 81 13.2 15.7 11 22 1023.1 0 29.1 32.4 56.5 148.9 154.5 535.0
01/09 05:20 18.8 81 13.04 15.5 11 20 1023 0 28.8 32.1 55.9 147.4 152.6 528.3
01/09 05:10 19 81 13.2 15.7 11 20 1022.9 0 29.1 32.3 56.5 148.8 154.4 534.9
01/09 05:00 19.1 81 13.28 15.8 13 22 1022.9 0 29.2 32.5 56.7 149.6 155.4 538.2
01/09 04:50 19.1 81 13.28 15.8 15 22 1022.8 0 29.2 32.4 56.7 149.6 155.4 538.2
01/09 04:40 19.1 82 13.44 16 13 24 1022.7 0 29.6 32.7 57.4 151.4 157.7 546.2
01/09 04:30 19.1 83 13.6 16.1 13 28 1022.7 0 29.9 33.0 58.2 153.3 160.0 554.3
01/09 04:20 18.5 84 13.29 15.7 9 20 1022.7 0 29.3 32.7 57.2 150.8 156.7 542.9
01/09 04:10 18.3 82 12.82 15.2 9 15 1022.7 0 28.3 31.9 55.3 145.7 150.4 520.5
01/09 04:00 18.7 81 12.97 15.4 9 17 1022.8 0 28.6 32.1 55.7 146.7 151.7 525.4
01/09 03:50 19.1 79 12.95 15.4 11 20 1022.8 0 28.5 31.9 55.3 145.7 150.6 521.7
01/09 03:40 19.5 79 13.26 15.8 11 22 1022.9 0 29.2 32.3 56.4 148.6 154.3 534.4
01/09 03:30 19.6 78 13.17 15.7 13 24 1022.9 0 29.0 32.1 55.9 147.3 152.8 529.3
01/09 03:20 19.8 77 13.15 15.7 15 26 1023 0 28.9 32.0 55.7 146.7 152.1 526.9
01/09 03:10 19.9 78 13.4 16 15 33 1023.1 0 29.4 32.4 56.7 149.5 155.5 538.7
01/09 03:00 20 77 13.31 15.8 13 22 1023.1 0 29.2 32.2 56.2 148.2 154.0 533.6
01/09 02:50 20.1 75 13.04 15.5 13 24 1023.2 0 28.7 31.7 55.0 144.9 150.0 519.5
01/09 02:40 20.2 75 13.11 15.6 13 28 1023.2 0 28.8 31.8 55.2 145.5 150.8 522.3
01/09 02:30 20.3 75 13.19 15.7 13 22 1023.2 0 29.0 31.9 55.5 146.3 151.7 525.6
01/09 02:20 20.3 74 13.01 15.5 17 30 1023.3 0 28.6 31.6 54.7 144.2 149.2 516.8
01/09 02:10 20.5 74 13.17 15.7 19 32 1023.4 0 28.9 31.8 55.3 145.7 151.1 523.3
01/09 02:00 20.6 74 13.24 15.8 19 32 1023.5 0 29.0 31.8 55.5 146.3 151.9 526.1
01/09 01:50 20.6 75 13.42 16 19 28 1023.6 0 29.4 32.2 56.3 148.4 154.4 535.1
01/09 01:40 20.5 75 13.34 15.9 20 32 1023.7 0 29.3 32.1 56.0 147.7 153.5 531.8
01/09 01:30 20.5 75 13.34 15.9 20 33 1023.7 0 29.3 32.1 56.0 147.7 153.5 531.8
01/09 01:20 20.3 78 13.72 16.3 19 30 1023.7 0 30.1 32.8 57.8 152.5 159.3 552.2
01/09 01:10 20.3 79 13.89 16.5 20 33 1023.8 0 30.5 33.1 58.6 154.5 161.8 560.7
01/09 01:00 20.3 78 13.72 16.3 20 35 1023.9 0 30.1 32.8 57.8 152.5 159.4 552.2
01/09 00:50 20.4 77 13.62 16.2 20 35 1024 0 29.9 32.6 57.3 151.2 157.7 546.6
01/09 00:40 20.6 77 13.78 16.4 24 37 1024.1 0 30.2 32.8 57.9 152.6 159.6 553.2
01/09 00:30 20.6 76 13.6 16.2 24 35 1024 0 29.8 32.5 57.1 150.5 157.0 544.1
01/09 00:20 20.6 77 13.78 16.4 22 35 1024 0 30.2 32.8 57.9 152.6 159.6 553.1
01/09 00:10 20.7 75 13.5 16.1 24 39 1024.1 0 29.6 32.3 56.6 149.2 155.4 538.5
01/09 00:00 20.6 76 13.6 16.2 22 35 1024 0 29.8 32.5 57.1 150.5 157.0 544.1
31/08 23:50 20.6 76 13.6 16.2 24 37 1024.1 0 29.8 32.5 57.1 150.6 157.0 544.2
31/08 23:40 20.6 74 13.24 15.8 24 37 1024.2 0 29.0 31.9 55.6 146.4 151.9 526.4
31/08 23:30 20.6 75 13.42 16 26 41 1024.1 0 29.4 32.2 56.3 148.5 154.5 535.3
31/08 23:20 20.7 76 13.68 16.3 24 41 1024.1 0 30.0 32.6 57.4 151.3 158.0 547.5
31/08 23:10 20.7 76 13.68 16.3 24 37 1024.1 0 30.0 32.6 57.4 151.3 158.0 547.5
31/08 23:00 20.6 75 13.42 16 24 37 1024.1 0 29.4 32.2 56.3 148.5 154.5 535.3
31/08 22:50 20.8 77 13.94 16.6 24 46 1024.1 0 30.5 33.0 58.4 154.1 161.5 559.7
31/08 22:40 20.7 76 13.68 16.3 26 43 1024.1 0 30.0 32.6 57.4 151.3 158.0 547.5
31/08 22:30 20.6 76 13.6 16.2 26 43 1024 0 29.8 32.5 57.1 150.5 157.0 544.1
31/08 22:20 20.8 78 14.12 16.8 26 39 1024 0 30.9 33.3 59.2 156.2 164.1 568.7

Last Refresh: 01-Sep-2026 14:34:18

Bureau of Meteorology